Time;durP1;ratioP1;P1;durP2;ratioP2;P2;SDS_P1;SDS_P2;PMS_P1;PMS_P2;Temp;Humidity;BMP_temperature;BMP_pressure;BME280_temperature;BME280_humidity;BME280_pressure;Samples;Min_cycle;Max_cycle;Signal;HPM_P1;HPM_P2
2023/11/30 00:02:23;;;;;;;12.40;6.82;;;0.70;99.90;;;;;;4955898;28;20093;-76
2023/11/30 00:05:10;;;;;;;11.65;5.57;;;0.70;99.90;;;;;;4961930;28;20035;-76
2023/11/30 00:07:57;;;;;;;9.93;5.63;;;0.70;99.90;;;;;;4962079;28;20303;-76
2023/11/30 00:10:44;;;;;;;15.07;5.70;;;0.70;99.90;;;;;;4976688;28;20058;-76
2023/11/30 00:13:32;;;;;;;9.45;4.65;;;0.70;99.90;;;;;;4975530;28;20088;-76
2023/11/30 00:16:19;;;;;;;10.88;5.78;;;0.70;99.90;;;;;;4962607;28;20101;-76
2023/11/30 00:19:06;;;;;;;10.55;5.75;;;0.70;99.90;;;;;;4949200;28;20039;-76
2023/11/30 00:21:53;;;;;;;10.13;5.67;;;0.80;99.90;;;;;;4954669;28;20042;-76
2023/11/30 00:24:40;;;;;;;9.05;5.43;;;0.70;99.90;;;;;;4960161;28;20035;-76
2023/11/30 00:27:28;;;;;;;10.48;6.68;;;0.80;99.90;;;;;;4975528;28;20042;-76
2023/11/30 00:30:15;;;;;;;12.05;5.97;;;0.80;99.90;;;;;;4974513;28;20038;-76
2023/11/30 00:33:03;;;;;;;12.05;6.53;;;0.70;99.90;;;;;;4964196;28;20043;-76
2023/11/30 00:35:50;;;;;;;;;;;0.80;99.90;;;;;;4980280;28;20471;-75
2023/11/30 00:38:37;;;;;;;12.93;6.18;;;0.70;99.90;;;;;;4977994;28;19945;-76
2023/11/30 00:41:24;;;;;;;8.65;5.18;;;0.70;99.90;;;;;;4959088;28;20097;-76
2023/11/30 00:44:12;;;;;;;7.73;5.23;;;0.70;99.90;;;;;;4967057;28;20030;-76
2023/11/30 00:46:59;;;;;;;10.13;5.13;;;0.70;99.90;;;;;;4965890;28;20471;-75
2023/11/30 00:49:45;;;;;;;9.23;3.93;;;0.80;99.90;;;;;;4965666;28;20070;-76
2023/11/30 00:52:32;;;;;;;9.68;4.85;;;0.80;99.90;;;;;;4978665;28;20053;-76
2023/11/30 00:55:19;;;;;;;9.27;5.43;;;0.80;99.90;;;;;;4947425;29;20050;-76
2023/11/30 00:58:06;;;;;;;8.68;5.50;;;0.80;99.90;;;;;;4950030;28;20034;-76
2023/11/30 01:00:53;;;;;;;11.20;6.13;;;0.90;99.90;;;;;;4960932;28;20476;-76
2023/11/30 01:03:41;;;;;;;11.63;5.37;;;0.80;99.90;;;;;;4960837;28;20118;-76
2023/11/30 01:06:28;;;;;;;9.45;5.32;;;0.90;99.90;;;;;;4978922;28;20121;-75
2023/11/30 01:09:16;;;;;;;9.68;5.35;;;0.90;99.90;;;;;;4966540;28;20050;-76
2023/11/30 01:12:03;;;;;;;9.65;5.38;;;0.90;99.90;;;;;;4946974;29;20126;-76
2023/11/30 01:14:51;;;;;;;10.20;5.72;;;0.90;99.90;;;;;;4941262;28;20126;-76
2023/11/30 01:17:38;;;;;;;10.77;5.70;;;0.90;99.90;;;;;;4946896;28;20042;-76
2023/11/30 01:20:25;;;;;;;9.35;5.38;;;0.90;99.90;;;;;;4958579;29;20039;-76
2023/11/30 01:23:13;;;;;;;10.53;5.97;;;0.90;99.90;;;;;;4953788;28;20039;-76
2023/11/30 01:26:02;;;;;;;8.60;5.93;;;0.90;99.90;;;;;;4965362;28;20329;-76
2023/11/30 01:28:49;;;;;;;9.88;5.43;;;0.90;99.90;;;;;;4951641;28;20100;-76
2023/11/30 01:31:36;;;;;;;11.30;5.60;;;0.90;99.90;;;;;;4974501;28;20042;-76
2023/11/30 01:34:23;;;;;;;9.17;5.30;;;0.90;99.90;;;;;;4972568;28;20306;-76
2023/11/30 01:37:10;;;;;;;9.70;5.90;;;0.90;99.90;;;;;;5003449;28;20277;-76
2023/11/30 01:39:58;;;;;;;10.93;5.93;;;0.90;99.90;;;;;;4959816;28;20058;-76
2023/11/30 01:42:45;;;;;;;10.23;6.43;;;0.90;99.90;;;;;;4969320;28;20479;-76
2023/11/30 01:45:33;;;;;;;12.32;6.05;;;0.90;99.90;;;;;;4940192;28;20348;-76
2023/11/30 01:48:19;;;;;;;7.80;4.45;;;0.90;99.90;;;;;;4936364;29;20050;-76
2023/11/30 01:51:07;;;;;;;11.05;5.47;;;0.80;99.90;;;;;;4964726;28;20046;-76
2023/11/30 01:53:54;;;;;;;9.65;5.15;;;0.90;99.90;;;;;;4953403;28;20125;-75
2023/11/30 01:56:41;;;;;;;9.30;5.93;;;0.90;99.90;;;;;;4972515;28;20368;-76
2023/11/30 01:59:29;;;;;;;11.38;5.43;;;0.80;99.90;;;;;;4952922;28;20051;-76
2023/11/30 02:02:19;;;;;;;11.40;5.60;;;0.80;99.90;;;;;;4967028;28;20035;-76
2023/11/30 02:05:05;;;;;;;10.77;5.65;;;0.80;99.90;;;;;;4982394;28;20583;-76
2023/11/30 02:07:51;;;;;;;9.80;5.13;;;0.80;99.90;;;;;;4951180;28;20372;-76
2023/11/30 02:10:37;;;;;;;11.48;5.85;;;0.80;99.90;;;;;;4971203;28;20053;-76
2023/11/30 02:13:26;;;;;;;9.70;5.68;;;0.80;99.90;;;;;;4973441;28;20039;-76
2023/11/30 02:16:13;;;;;;;9.80;5.65;;;0.80;99.90;;;;;;4978433;28;20535;-76
2023/11/30 02:19:01;;;;;;;10.18;5.65;;;0.80;99.90;;;;;;4984938;28;20049;-76
2023/11/30 02:21:50;;;;;;;11.85;5.78;;;0.80;99.90;;;;;;4970162;28;20074;-76
2023/11/30 02:24:37;;;;;;;11.32;5.47;;;0.80;99.90;;;;;;4959429;28;20377;-76
2023/11/30 02:27:25;;;;;;;9.93;5.68;;;0.80;99.90;;;;;;4954318;28;20035;-76
2023/11/30 02:30:12;;;;;;;9.73;5.57;;;0.80;99.90;;;;;;4967476;28;20422;-76
2023/11/30 02:32:59;;;;;;;11.27;5.38;;;0.80;99.90;;;;;;4966901;28;20142;-76
2023/11/30 02:35:47;;;;;;;13.27;6.03;;;0.80;99.90;;;;;;4983988;28;20094;-76
2023/11/30 02:38:34;;;;;;;10.35;6.40;;;0.80;99.90;;;;;;4975281;28;20042;-76
2023/11/30 02:41:21;;;;;;;10.15;5.70;;;0.80;99.90;;;;;;4938383;28;20054;-75
2023/11/30 02:44:09;;;;;;;13.02;6.25;;;0.70;99.90;;;;;;4964486;28;20043;-76
2023/11/30 02:46:57;;;;;;;11.30;5.32;;;0.70;99.90;;;;;;4959272;28;20058;-75
2023/11/30 02:49:43;;;;;;;10.65;6.18;;;0.70;99.90;;;;;;4957964;28;20054;-76
2023/11/30 02:52:31;;;;;;;8.65;4.93;;;0.70;99.90;;;;;;4951135;28;20396;-76
2023/11/30 02:55:18;;;;;;;9.55;5.30;;;0.60;99.90;;;;;;4956522;28;20566;-75
2023/11/30 02:58:05;;;;;;;10.65;5.65;;;0.60;99.90;;;;;;4988994;28;20491;-76
2023/11/30 03:00:53;;;;;;;8.70;5.13;;;0.60;99.90;;;;;;4949135;28;20054;-76
2023/11/30 03:03:40;;;;;;;12.07;5.97;;;0.60;99.90;;;;;;4963316;28;20478;-76
2023/11/30 03:06:27;;;;;;;14.50;6.18;;;0.50;99.90;;;;;;4963033;28;20294;-76
2023/11/30 03:09:14;;;;;;;9.65;5.70;;;0.60;99.90;;;;;;4978065;28;20034;-76
2023/11/30 03:12:02;;;;;;;11.55;5.70;;;0.50;99.90;;;;;;4946259;28;20053;-76
2023/11/30 03:14:49;;;;;;;12.02;6.45;;;0.50;99.90;;;;;;4951834;28;20034;-76
2023/11/30 03:17:37;;;;;;;10.48;5.55;;;0.50;99.90;;;;;;4936178;28;20054;-76
2023/11/30 03:20:25;;;;;;;11.02;6.15;;;0.50;99.90;;;;;;4949932;28;20038;-76
2023/11/30 03:23:12;;;;;;;7.60;4.60;;;0.40;99.90;;;;;;4967536;28;20093;-76
2023/11/30 03:25:59;;;;;;;10.60;6.45;;;0.40;99.90;;;;;;4957299;28;20039;-76
2023/11/30 03:28:47;;;;;;;12.40;6.10;;;0.40;99.90;;;;;;4957333;28;20050;-76
2023/11/30 03:31:35;;;;;;;10.55;5.90;;;0.30;99.90;;;;;;4987407;28;20406;-76
2023/11/30 03:34:22;;;;;;;10.23;4.72;;;0.30;99.90;;;;;;4947228;28;20057;-76
2023/11/30 03:37:09;;;;;;;12.80;7.10;;;0.30;99.90;;;;;;4970742;28;20101;-76
2023/11/30 03:39:56;;;;;;;12.15;7.45;;;0.30;99.90;;;;;;4961916;28;20448;-76
2023/11/30 03:42:44;;;;;;;13.55;7.15;;;0.30;99.90;;;;;;4974847;28;20035;-75
2023/11/30 03:45:32;;;;;;;12.35;6.93;;;0.20;99.90;;;;;;4976459;28;20086;-76
2023/11/30 03:48:20;;;;;;;14.18;8.38;;;0.20;99.90;;;;;;4963278;28;20039;-76
2023/11/30 03:51:07;;;;;;;14.27;7.53;;;0.10;99.90;;;;;;4958999;28;20149;-76
2023/11/30 03:53:56;;;;;;;15.73;8.57;;;0.00;99.90;;;;;;4976789;28;20031;-76
2023/11/30 03:56:42;;;;;;;16.77;8.55;;;0.00;99.90;;;;;;4989511;28;20102;-76
2023/11/30 03:59:31;;;;;;;14.05;8.30;;;0.00;99.90;;;;;;4962773;28;20046;-76
2023/11/30 04:02:17;;;;;;;18.20;7.80;;;-0.10;99.90;;;;;;4953345;28;20039;-76
2023/11/30 04:05:05;;;;;;;15.98;8.05;;;-0.10;99.90;;;;;;4963386;28;20062;-76
2023/11/30 04:07:52;;;;;;;18.23;8.95;;;-0.10;99.90;;;;;;4931265;28;20126;-76
2023/11/30 04:10:39;;;;;;;17.15;7.78;;;-0.10;99.90;;;;;;4947905;29;20121;-76
2023/11/30 04:13:27;;;;;;;15.07;8.37;;;-0.20;99.90;;;;;;4966206;28;20396;-76
2023/11/30 04:16:17;;;;;;;15.68;8.50;;;-0.20;99.90;;;;;;4948877;28;20270;-76
2023/11/30 04:19:04;;;;;;;15.45;8.30;;;-0.20;99.90;;;;;;4979245;28;20046;-76
2023/11/30 04:21:52;;;;;;;15.07;7.50;;;-0.20;99.90;;;;;;4963887;28;20134;-76
2023/11/30 04:24:40;;;;;;;15.65;8.32;;;-0.20;99.90;;;;;;4973177;28;20711;-76
2023/11/30 04:27:27;;;;;;;17.08;8.38;;;-0.20;99.90;;;;;;4981909;28;20185;-76
2023/11/30 04:30:16;;;;;;;14.30;9.02;;;-0.20;99.90;;;;;;4956894;28;20360;-76
2023/11/30 04:33:03;;;;;;;16.75;8.60;;;-0.30;99.90;;;;;;4950427;28;20050;-76
2023/11/30 04:35:51;;;;;;;15.77;8.63;;;-0.30;99.90;;;;;;4966835;28;20069;-75
2023/11/30 04:38:38;;;;;;;16.23;9.20;;;-0.40;99.90;;;;;;4952151;28;20042;-76
2023/11/30 04:41:25;;;;;;;15.67;8.93;;;-0.40;99.90;;;;;;4952519;28;20041;-76
2023/11/30 04:44:13;;;;;;;17.60;8.52;;;-0.40;99.90;;;;;;4980364;28;20041;-76
2023/11/30 04:47:00;;;;;;;16.65;8.18;;;-0.40;99.90;;;;;;4966104;28;20162;-76
2023/11/30 04:49:46;;;;;;;20.38;8.90;;;-0.40;99.90;;;;;;4946594;28;20051;-76
2023/11/30 04:52:33;;;;;;;19.40;8.70;;;-0.40;99.90;;;;;;4960496;28;20400;-76
2023/11/30 04:55:21;;;;;;;18.55;8.90;;;-0.40;99.90;;;;;;4960055;29;20078;-76
2023/11/30 04:58:08;;;;;;;16.83;8.65;;;-0.50;99.90;;;;;;4951868;28;20130;-76
2023/11/30 05:00:56;;;;;;;16.08;7.85;;;-0.50;99.90;;;;;;4935240;28;20461;-76
2023/11/30 05:03:44;;;;;;;17.60;9.27;;;-0.50;99.90;;;;;;4979412;28;20038;-76
2023/11/30 05:06:31;;;;;;;17.40;9.50;;;-0.60;99.90;;;;;;4951877;28;20034;-76
2023/11/30 05:09:19;;;;;;;20.73;9.00;;;-0.60;99.90;;;;;;4959407;28;20070;-76
2023/11/30 05:12:06;;;;;;;20.85;8.93;;;-0.70;99.90;;;;;;4934203;28;20050;-76
2023/11/30 05:14:52;;;;;;;20.48;10.40;;;-0.80;99.90;;;;;;4955214;28;20038;-75
2023/11/30 05:17:39;;;;;;;19.40;10.80;;;-0.80;99.90;;;;;;4949999;28;20121;-75
2023/11/30 05:20:26;;;;;;;23.07;9.87;;;-0.80;99.90;;;;;;4952514;28;20050;-75
2023/11/30 05:23:13;;;;;;;19.03;9.43;;;-0.80;99.90;;;;;;4965613;28;20258;-75
2023/11/30 05:26:01;;;;;;;20.57;10.67;;;-0.70;99.90;;;;;;4950791;28;20294;-75
2023/11/30 05:28:48;;;;;;;16.50;8.88;;;-0.70;99.90;;;;;;4965532;28;20201;-75
2023/11/30 05:31:35;;;;;;;17.00;9.65;;;-0.70;99.90;;;;;;4952566;28;20088;-75
2023/11/30 05:34:22;;;;;;;18.27;9.07;;;-0.70;99.90;;;;;;4965164;28;20139;-75
2023/11/30 05:37:10;;;;;;;16.17;8.35;;;-0.80;99.90;;;;;;4978457;28;20147;-75
2023/11/30 05:39:58;;;;;;;15.45;8.52;;;-0.80;99.90;;;;;;4961193;28;20043;-75
2023/11/30 05:42:47;;;;;;;16.50;9.43;;;-0.80;99.90;;;;;;4983344;28;20056;-75
2023/11/30 05:45:34;;;;;;;15.25;8.00;;;-0.80;99.90;;;;;;4959201;29;20054;-75
2023/11/30 05:48:20;;;;;;;19.20;8.98;;;-0.70;99.90;;;;;;4964555;28;20166;-75
2023/11/30 05:51:08;;;;;;;17.88;9.77;;;-0.70;99.90;;;;;;4952027;28;20375;-75
2023/11/30 05:53:55;;;;;;;17.60;9.48;;;-0.70;99.90;;;;;;4945500;29;20089;-75
2023/11/30 05:56:42;;;;;;;20.30;9.35;;;-0.70;99.90;;;;;;4964750;28;20704;-75
2023/11/30 05:59:29;;;;;;;17.60;9.80;;;-0.60;99.90;;;;;;4977830;28;20046;-75
2023/11/30 06:02:18;;;;;;;18.58;8.35;;;-0.60;99.90;;;;;;4978709;28;20289;-76
2023/11/30 06:05:05;;;;;;;17.88;9.07;;;-0.60;99.90;;;;;;4975770;28;20125;-75
2023/11/30 06:07:53;;;;;;;20.80;10.35;;;-0.50;99.90;;;;;;4971506;28;20031;-75
2023/11/30 06:10:40;;;;;;;19.55;10.15;;;-0.50;99.90;;;;;;4964145;28;20472;-75
2023/11/30 06:13:28;;;;;;;20.15;10.88;;;-0.40;99.90;;;;;;4958794;29;20043;-75
2023/11/30 06:16:15;;;;;;;17.92;9.50;;;-0.40;99.90;;;;;;4956437;29;20163;-75
2023/11/30 06:19:02;;;;;;;21.03;9.83;;;-0.40;99.90;;;;;;4934188;28;20050;-75
2023/11/30 06:21:50;;;;;;;21.52;10.95;;;-0.30;99.90;;;;;;4978193;28;21138;-75
2023/11/30 06:24:38;;;;;;;20.88;11.68;;;-0.30;99.90;;;;;;4964231;28;20034;-75
2023/11/30 06:27:25;;;;;;;18.30;10.00;;;-0.30;99.90;;;;;;4951539;28;20043;-75
2023/11/30 06:30:12;;;;;;;20.55;9.77;;;-0.30;99.90;;;;;;4957699;28;20042;-75
2023/11/30 06:32:59;;;;;;;19.10;9.68;;;-0.30;99.90;;;;;;4964238;28;20043;-75
2023/11/30 06:35:47;;;;;;;19.25;10.82;;;-0.30;99.90;;;;;;4963229;28;20086;-75
2023/11/30 06:38:34;;;;;;;20.48;10.25;;;-0.30;99.90;;;;;;4959763;28;20065;-75
2023/11/30 06:41:21;;;;;;;20.67;9.90;;;-0.30;99.90;;;;;;4977317;28;20070;-75
2023/11/30 06:44:08;;;;;;;20.30;10.13;;;-0.20;99.90;;;;;;4976034;28;20274;-75
2023/11/30 06:46:55;;;;;;;20.05;10.20;;;-0.20;99.90;;;;;;4941444;28;20039;-75
2023/11/30 06:49:42;;;;;;;23.60;10.40;;;-0.20;99.90;;;;;;4961871;28;20062;-75
2023/11/30 06:52:30;;;;;;;25.40;11.20;;;-0.10;99.90;;;;;;4963849;28;20278;-75
2023/11/30 06:55:17;;;;;;;;;;;-0.10;99.90;;;;;;4979082;28;20431;-75
2023/11/30 06:58:06;;;;;;;22.23;14.20;;;-0.10;99.90;;;;;;4963818;28;19910;-75
2023/11/30 07:00:53;;;;;;;22.08;12.57;;;0.00;99.90;;;;;;4935545;28;20345;-75
2023/11/30 07:03:43;;;;;;;19.10;11.15;;;0.00;99.90;;;;;;4974556;28;20035;-74
2023/11/30 07:06:30;;;;;;;21.42;11.00;;;0.00;99.90;;;;;;4958397;28;20035;-75
2023/11/30 07:09:16;;;;;;;20.40;10.43;;;0.00;99.90;;;;;;4956794;28;20035;-75
2023/11/30 07:12:03;;;;;;;21.20;10.05;;;0.10;99.90;;;;;;4942685;28;20071;-75
2023/11/30 07:14:49;;;;;;;21.35;11.73;;;0.10;99.90;;;;;;4956560;28;20097;-75
2023/11/30 07:17:35;;;;;;;24.05;10.85;;;0.10;99.90;;;;;;4957793;28;20081;-75
2023/11/30 07:20:22;;;;;;;19.88;10.40;;;0.10;99.90;;;;;;4943247;29;20611;-75
2023/11/30 07:23:10;;;;;;;22.73;10.43;;;0.10;99.90;;;;;;4974809;28;20061;-75
2023/11/30 07:25:58;;;;;;;18.40;10.68;;;0.10;99.90;;;;;;4975939;28;20030;-75
2023/11/30 07:28:44;;;;;;;23.02;11.10;;;0.10;99.90;;;;;;4963120;28;20093;-75
2023/11/30 07:31:30;;;;;;;17.85;10.52;;;0.20;99.90;;;;;;4961873;28;20125;-75
2023/11/30 07:34:16;;;;;;;20.42;11.45;;;0.20;99.90;;;;;;4960680;28;20046;-75
2023/11/30 07:37:03;;;;;;;20.20;10.68;;;0.20;99.90;;;;;;4952499;28;20035;-75
2023/11/30 07:39:49;;;;;;;22.45;10.63;;;0.20;99.90;;;;;;4988402;28;20047;-75
2023/11/30 07:42:35;;;;;;;21.83;10.82;;;0.20;99.90;;;;;;4988950;28;20452;-75
2023/11/30 07:45:21;;;;;;;20.77;10.50;;;0.30;99.90;;;;;;4975443;28;20042;-75
2023/11/30 07:48:07;;;;;;;23.05;11.38;;;0.30;99.90;;;;;;4956157;28;20038;-75
2023/11/30 07:50:53;;;;;;;23.90;11.00;;;0.20;99.90;;;;;;4976149;28;20494;-75
2023/11/30 07:53:39;;;;;;;22.13;11.63;;;0.20;99.90;;;;;;4968224;28;20047;-75
2023/11/30 07:56:25;;;;;;;21.52;11.43;;;0.30;99.90;;;;;;4968228;28;20042;-75
2023/11/30 07:59:13;;;;;;;21.83;11.23;;;0.30;99.90;;;;;;4950224;28;20105;-75
2023/11/30 08:02:00;;;;;;;24.33;11.88;;;0.30;99.90;;;;;;4959239;28;20042;-75
2023/11/30 08:04:47;;;;;;;22.52;11.52;;;0.30;99.90;;;;;;4972632;28;20151;-75
2023/11/30 08:07:33;;;;;;;20.17;10.68;;;0.30;99.90;;;;;;4966402;28;20042;-75
2023/11/30 08:10:21;;;;;;;20.63;11.48;;;0.40;99.90;;;;;;4959625;28;20043;-75
2023/11/30 08:13:10;;;;;;;21.15;12.43;;;0.40;99.90;;;;;;4965807;28;20043;-75
2023/11/30 08:16:01;;;;;;;22.05;12.40;;;0.40;99.90;;;;;;4963568;28;20042;-75
2023/11/30 08:18:48;;;;;;;21.73;10.77;;;0.40;99.90;;;;;;4955408;28;20101;-75
2023/11/30 08:21:40;;;;;;;25.48;13.27;;;0.50;99.90;;;;;;4980735;28;20451;-76
2023/11/30 08:24:28;;;;;;;22.00;11.85;;;0.60;99.90;;;;;;4959905;28;20035;-76
2023/11/30 08:27:15;;;;;;;;;;;0.50;99.90;;;;;;4959534;28;20118;-76
2023/11/30 08:30:04;;;;;;;21.83;10.98;;;0.50;99.90;;;;;;4992166;28;19910;-76
2023/11/30 08:32:50;;;;;;;22.92;11.73;;;0.50;99.90;;;;;;4987645;28;20109;-74
2023/11/30 08:35:37;;;;;;;20.00;12.00;;;0.50;99.90;;;;;;4944685;28;20054;-74
2023/11/30 08:38:25;;;;;;;23.00;12.18;;;0.50;99.90;;;;;;4977892;28;20047;-74
2023/11/30 08:41:12;;;;;;;;;;;0.60;99.90;;;;;;4971889;28;20099;-74
2023/11/30 08:44:00;;;;;;;24.38;12.07;;;0.60;99.90;;;;;;4972309;28;19945;-75
2023/11/30 08:46:47;;;;;;;20.55;11.20;;;0.60;99.90;;;;;;4960162;28;20042;-75
2023/11/30 08:49:33;;;;;;;21.85;11.82;;;0.60;99.90;;;;;;4982268;28;20058;-75
2023/11/30 08:52:20;;;;;;;20.38;11.23;;;0.70;99.90;;;;;;4968639;28;20043;-75
2023/11/30 08:55:06;;;;;;;19.88;11.02;;;0.70;99.90;;;;;;4962644;28;20038;-75
2023/11/30 08:57:54;;;;;;;21.02;11.77;;;0.80;99.90;;;;;;4953678;28;20387;-75
2023/11/30 09:00:42;;;;;;;21.45;11.07;;;0.80;99.90;;;;;;4965557;28;20046;-75
2023/11/30 09:03:29;;;;;;;19.20;10.95;;;0.80;99.90;;;;;;4977567;28;20038;-76
2023/11/30 09:06:16;;;;;;;23.80;11.37;;;0.90;99.90;;;;;;4977974;28;20039;-75
2023/11/30 09:09:03;;;;;;;19.35;11.18;;;0.90;99.90;;;;;;4963792;28;20281;-75
2023/11/30 09:11:50;;;;;;;22.23;11.83;;;1.00;99.90;;;;;;4969152;28;20525;-75
2023/11/30 09:14:37;;;;;;;22.57;12.53;;;1.00;99.90;;;;;;4951809;28;20035;-75
2023/11/30 09:17:25;;;;;;;21.25;11.10;;;1.10;99.90;;;;;;4951907;28;20042;-75
2023/11/30 09:20:12;;;;;;;16.63;9.82;;;1.20;99.90;;;;;;4983605;28;20043;-76
2023/11/30 09:23:00;;;;;;;19.85;11.35;;;1.30;99.90;;;;;;4953981;28;20027;-76
2023/11/30 09:25:48;;;;;;;18.75;10.80;;;1.30;99.90;;;;;;4967450;28;20043;-76
2023/11/30 09:28:38;;;;;;;20.60;11.85;;;1.50;99.90;;;;;;4971964;28;20035;-76
2023/11/30 09:31:25;;;;;;;19.88;12.23;;;1.60;99.90;;;;;;4965082;28;20049;-76
2023/11/30 09:34:13;;;;;;;15.73;9.07;;;1.70;99.90;;;;;;4952830;28;20126;-76
2023/11/30 09:37:01;;;;;;;22.27;12.27;;;1.90;99.90;;;;;;4951351;28;20117;-76
2023/11/30 09:39:49;;;;;;;20.73;12.88;;;2.00;99.90;;;;;;4984732;28;20053;-76
2023/11/30 09:42:35;;;;;;;21.55;12.73;;;2.10;99.90;;;;;;4962193;28;20039;-76
2023/11/30 09:45:23;;;;;;;20.95;12.77;;;2.10;99.90;;;;;;4931620;29;20043;-76
2023/11/30 09:48:11;;;;;;;25.33;13.00;;;2.10;99.90;;;;;;4953233;28;20078;-76
2023/11/30 09:50:58;;;;;;;26.30;14.70;;;2.20;99.90;;;;;;4958399;28;20446;-76
2023/11/30 09:53:45;;;;;;;22.17;12.48;;;2.10;99.90;;;;;;4970794;28;20058;-76
2023/11/30 09:56:33;;;;;;;20.83;11.70;;;2.10;99.90;;;;;;4968965;28;20630;-76
2023/11/30 09:59:20;;;;;;;29.88;12.43;;;2.10;99.90;;;;;;4955867;28;20051;-75
2023/11/30 10:02:11;;;;;;;23.30;13.02;;;2.00;99.90;;;;;;4955323;28;20043;-75
2023/11/30 10:04:59;;;;;;;21.75;11.75;;;2.00;99.90;;;;;;4970957;28;20075;-76
2023/11/30 10:07:46;;;;;;;23.45;12.05;;;2.00;99.90;;;;;;4971398;28;20408;-76
2023/11/30 10:10:33;;;;;;;22.52;11.90;;;2.00;99.90;;;;;;4946201;29;20043;-76
2023/11/30 10:13:21;;;;;;;21.00;11.60;;;2.00;99.90;;;;;;4962481;28;20066;-76
2023/11/30 10:16:10;;;;;;;22.90;12.20;;;1.90;99.90;;;;;;4959508;28;20043;-76
2023/11/30 10:18:57;;;;;;;20.50;11.80;;;2.00;99.90;;;;;;4957732;28;20047;-76
2023/11/30 10:21:45;;;;;;;17.05;9.32;;;2.00;99.90;;;;;;4956188;29;20035;-74
2023/11/30 10:24:32;;;;;;;20.27;11.38;;;2.10;99.90;;;;;;4976786;28;20049;-75
2023/11/30 10:27:21;;;;;;;20.85;12.07;;;2.20;99.90;;;;;;4946572;28;20055;-76
2023/11/30 10:30:10;;;;;;;19.83;10.77;;;2.30;99.90;;;;;;4947897;28;20043;-76
2023/11/30 10:33:00;;;;;;;19.92;10.32;;;2.30;99.90;;;;;;4962113;28;20185;-76
2023/11/30 10:35:52;;;;;;;19.08;11.18;;;2.40;99.90;;;;;;4952853;28;20070;-76
2023/11/30 10:38:39;;;;;;;19.60;10.45;;;2.40;99.90;;;;;;4964254;28;20404;-76
2023/11/30 10:41:52;;;;;;;19.05;10.90;;;2.50;99.90;;;;;;4963775;28;20086;-76
2023/11/30 10:44:40;;;;;;;20.60;10.88;;;2.60;99.90;;;;;;4968981;28;20050;-76
2023/11/30 10:47:27;;;;;;;17.90;10.35;;;2.80;99.90;;;;;;4962553;28;20039;-76
2023/11/30 10:50:15;;;;;;;17.48;9.98;;;3.00;99.90;;;;;;4970461;28;20519;-76
2023/11/30 10:53:04;;;;;;;17.88;10.55;;;3.10;99.90;;;;;;4977756;28;20066;-76
2023/11/30 10:55:51;;;;;;;17.73;9.95;;;3.10;99.90;;;;;;4949565;28;20050;-76
2023/11/30 10:58:39;;;;;;;14.55;9.23;;;3.10;99.90;;;;;;4967534;28;20050;-76
2023/11/30 11:01:26;;;;;;;15.70;9.45;;;3.10;99.90;;;;;;4964297;28;20047;-76
2023/11/30 11:04:15;;;;;;;15.85;10.25;;;3.10;99.90;;;;;;4963020;28;20038;-76
2023/11/30 11:07:11;;;;;;;15.40;9.85;;;3.10;99.90;;;;;;4958335;28;20031;-76
2023/11/30 11:09:57;;;;;;;16.02;10.15;;;3.10;99.90;;;;;;4965506;28;20117;-76
2023/11/30 11:12:43;;;;;;;17.30;10.48;;;3.10;99.90;;;;;;4970284;28;20042;-76
2023/11/30 11:15:29;;;;;;;17.52;9.32;;;3.10;99.90;;;;;;4947257;28;20074;-76
2023/11/30 11:18:16;;;;;;;16.33;9.20;;;3.10;99.90;;;;;;4953169;28;20039;-76
2023/11/30 11:21:03;;;;;;;16.67;11.10;;;3.00;99.90;;;;;;4971199;28;20110;-76
2023/11/30 11:23:50;;;;;;;17.73;10.20;;;3.10;99.90;;;;;;4964102;28;20045;-76
2023/11/30 11:26:44;;;;;;;19.13;10.37;;;3.10;99.90;;;;;;4976155;28;20177;-76
2023/11/30 11:29:32;;;;;;;19.20;9.95;;;3.30;99.90;;;;;;4963295;28;20262;-76
2023/11/30 11:32:19;;;;;;;16.83;9.40;;;3.70;99.90;;;;;;4960001;28;20038;-76
2023/11/30 11:35:07;;;;;;;15.90;10.38;;;4.40;99.90;;;;;;4965278;28;20038;-75
2023/11/30 11:37:58;;;;;;;18.50;10.07;;;5.20;99.90;;;;;;4956445;28;20046;-76
2023/11/30 11:40:45;;;;;;;13.65;9.60;;;5.80;99.90;;;;;;4970360;28;20488;-76
2023/11/30 11:43:33;;;;;;;13.80;9.63;;;6.20;99.90;;;;;;4976091;28;20030;-77
2023/11/30 11:46:20;;;;;;;12.65;9.40;;;6.70;99.90;;;;;;4986076;28;20050;-76
2023/11/30 11:49:08;;;;;;;12.07;9.07;;;7.10;99.90;;;;;;4976551;28;20420;-77
2023/11/30 11:51:55;;;;;;;12.10;8.43;;;7.40;99.90;;;;;;4956731;28;20053;-76
2023/11/30 11:54:42;;;;;;;14.47;9.63;;;7.70;99.90;;;;;;4974756;28;20101;-76
2023/11/30 11:57:37;;;;;;;12.82;8.73;;;7.70;99.90;;;;;;4967460;28;20120;-76
2023/11/30 12:00:25;;;;;;;12.77;8.40;;;8.00;99.90;;;;;;4963187;28;20108;-77
2023/11/30 12:03:13;;;;;;;13.50;8.43;;;8.10;99.90;;;;;;4961356;28;20602;-76
2023/11/30 12:06:00;;;;;;;12.45;8.82;;;8.40;99.90;;;;;;4983130;28;20045;-76
2023/11/30 12:08:49;;;;;;;14.60;9.50;;;8.60;99.90;;;;;;4959637;28;20085;-76
2023/11/30 12:11:36;;;;;;;14.35;9.75;;;8.90;99.90;;;;;;4983065;28;20043;-76
2023/11/30 12:14:23;;;;;;;16.70;14.73;;;9.10;99.90;;;;;;4960516;28;20126;-76
2023/11/30 12:17:12;;;;;;;14.87;9.60;;;9.30;99.90;;;;;;4945496;28;20031;-76
2023/11/30 12:20:00;;;;;;;15.15;10.07;;;9.40;99.90;;;;;;4971870;28;20297;-76
2023/11/30 12:22:48;;;;;;;14.48;9.65;;;9.30;99.90;;;;;;4956918;28;20551;-76
2023/11/30 12:25:38;;;;;;;13.17;9.13;;;9.60;99.90;;;;;;4975578;28;20443;-76
2023/11/30 12:28:25;;;;;;;11.25;7.97;;;9.30;99.90;;;;;;4977724;28;20274;-76
2023/11/30 12:31:13;;;;;;;12.17;8.47;;;9.40;99.90;;;;;;4966117;28;20050;-76
2023/11/30 12:34:00;;;;;;;10.82;8.23;;;9.30;99.90;;;;;;4967836;28;20075;-76
2023/11/30 12:36:48;;;;;;;13.13;9.30;;;8.80;99.90;;;;;;4966342;28;20097;-76
2023/11/30 12:39:35;;;;;;;14.00;8.48;;;8.10;99.90;;;;;;4953252;28;20519;-74
2023/11/30 12:42:21;;;;;;;11.85;7.53;;;7.60;99.90;;;;;;4971959;28;20073;-76
2023/11/30 12:45:09;;;;;;;14.18;8.82;;;7.30;99.90;;;;;;4979989;28;20046;-77
2023/11/30 12:47:57;;;;;;;11.82;8.00;;;6.80;99.90;;;;;;4967393;28;20093;-76
2023/11/30 12:50:45;;;;;;;14.52;8.38;;;6.70;99.90;;;;;;4980021;28;20054;-76
2023/11/30 12:53:32;;;;;;;13.38;8.60;;;6.60;99.90;;;;;;4978362;28;20080;-76
2023/11/30 12:56:20;;;;;;;9.57;6.00;;;6.80;99.90;;;;;;4979175;28;20082;-77
2023/11/30 12:59:07;;;;;;;11.70;7.97;;;6.70;99.90;;;;;;4952643;28;20042;-74
2023/11/30 13:01:54;;;;;;;11.48;7.82;;;6.80;99.90;;;;;;4947218;29;20043;-74
2023/11/30 13:04:42;;;;;;;11.63;8.23;;;6.60;99.90;;;;;;4946126;29;20035;-74
2023/11/30 13:07:29;;;;;;;13.50;9.23;;;6.40;99.90;;;;;;4971043;28;20612;-75
2023/11/30 13:10:16;;;;;;;15.80;9.65;;;6.10;99.90;;;;;;4967404;28;20043;-75
2023/11/30 13:13:02;;;;;;;12.82;8.70;;;5.80;99.90;;;;;;4953209;28;20498;-74
2023/11/30 13:15:51;;;;;;;14.40;8.60;;;5.50;99.90;;;;;;4966315;28;20065;-74
2023/11/30 13:18:38;;;;;;;;;;;5.40;99.90;;;;;;4993387;28;20389;-75
2023/11/30 13:21:26;;;;;;;16.13;9.35;;;5.10;99.90;;;;;;4979541;28;19950;-74
2023/11/30 13:24:13;;;;;;;17.02;9.35;;;5.00;99.90;;;;;;4991561;28;20090;-75
2023/11/30 13:27:00;;;;;;;16.23;9.27;;;4.80;99.90;;;;;;4981384;28;20396;-75
2023/11/30 13:29:47;;;;;;;12.80;8.23;;;4.70;99.90;;;;;;4963764;28;20046;-76
2023/11/30 13:32:35;;;;;;;12.97;7.77;;;4.60;99.90;;;;;;4932185;29;20039;-74
2023/11/30 13:35:23;;;;;;;16.30;9.25;;;4.50;99.90;;;;;;4965601;28;20113;-75
2023/11/30 13:38:11;;;;;;;13.23;8.15;;;4.40;99.90;;;;;;4966159;28;20420;-75
2023/11/30 13:40:57;;;;;;;15.15;8.10;;;4.30;99.90;;;;;;4972904;28;20054;-75
2023/11/30 13:43:44;;;;;;;14.20;8.95;;;4.30;99.90;;;;;;4963943;28;20081;-75
2023/11/30 13:46:32;;;;;;;13.33;8.80;;;4.20;99.90;;;;;;4971242;28;20118;-75
2023/11/30 13:49:20;;;;;;;14.02;8.68;;;4.10;99.90;;;;;;4945489;29;20292;-74
2023/11/30 13:52:07;;;;;;;11.93;8.02;;;4.00;99.90;;;;;;4953900;28;20050;-75
2023/11/30 13:54:55;;;;;;;15.87;9.23;;;3.90;99.90;;;;;;4963243;28;20090;-75
2023/11/30 13:57:41;;;;;;;15.07;9.63;;;3.80;99.90;;;;;;4939222;28;20039;-74
2023/11/30 14:00:29;;;;;;;12.32;8.32;;;3.70;99.90;;;;;;4964001;28;20053;-76
2023/11/30 14:03:16;;;;;;;18.83;9.45;;;3.70;99.90;;;;;;4992083;28;20451;-75
2023/11/30 14:06:04;;;;;;;11.88;7.82;;;3.60;99.90;;;;;;4976876;28;20795;-76
2023/11/30 14:08:51;;;;;;;18.25;9.65;;;3.60;99.90;;;;;;4953287;28;20081;-75
2023/11/30 14:11:37;;;;;;;16.35;9.68;;;3.50;99.90;;;;;;4966274;28;20471;-74
2023/11/30 14:14:24;;;;;;;16.55;10.52;;;3.50;99.90;;;;;;4977896;28;20093;-74
2023/11/30 14:17:13;;;;;;;16.30;9.40;;;3.40;99.90;;;;;;4964305;28;20045;-74
2023/11/30 14:20:05;;;;;;;18.08;10.25;;;3.30;99.90;;;;;;4978153;28;20100;-77
2023/11/30 14:22:52;;;;;;;16.00;10.38;;;3.30;99.90;;;;;;4964046;28;20126;-74
2023/11/30 14:25:38;;;;;;;19.38;9.90;;;3.30;99.90;;;;;;4978772;28;20514;-75
2023/11/30 14:28:26;;;;;;;16.40;10.10;;;3.30;99.90;;;;;;4963049;28;20130;-74